Time;durP1;ratioP1;P1;durP2;ratioP2;P2;SDS_P1;SDS_P2;PMS_P1;PMS_P2;Temp;Humidity;BMP_temperature;BMP_pressure;BME280_temperature;BME280_humidity;BME280_pressure;Samples;Min_cycle;Max_cycle;Signal;HPM_P1;HPM_P2
2022/10/28 00:00:47;;;;;;;6.23;2.43;;;;;;;14.69;100.00;101673.66;4958042;28;20455;-69
2022/10/28 00:03:14;;;;;;;9.60;3.20;;;;;;;14.64;100.00;101685.47;4957165;29;20453;-68
2022/10/28 00:05:41;;;;;;;9.50;2.37;;;;;;;14.62;100.00;101701.34;4955688;28;20834;-69
2022/10/28 00:08:07;;;;;;;6.47;3.00;;;;;;;14.61;100.00;101697.78;4956888;28;20450;-69
2022/10/28 00:10:34;;;;;;;8.57;2.57;;;;;;;14.60;100.00;101701.59;4957955;28;20517;-69
2022/10/28 00:13:00;;;;;;;8.13;2.80;;;;;;;14.63;100.00;101697.47;4956804;28;20451;-69
2022/10/28 00:15:27;;;;;;;6.00;2.70;;;;;;;14.63;100.00;101702.94;4956425;28;20494;-69
2022/10/28 00:17:53;;;;;;;8.80;2.57;;;;;;;14.63;100.00;101700.22;4956234;28;20443;-68
2022/10/28 00:20:21;;;;;;;9.47;3.30;;;;;;;14.65;100.00;101695.25;4957555;28;20892;-69
2022/10/28 00:22:48;;;;;;;6.40;2.83;;;;;;;14.65;100.00;101695.25;4956845;28;20451;-68
2022/10/28 00:25:14;;;;;;;8.07;3.57;;;;;;;14.66;100.00;101699.63;4955632;28;20985;-68
2022/10/28 00:27:42;;;;;;;5.10;2.30;;;;;;;14.70;100.00;101699.81;4956981;29;20446;-68
2022/10/28 00:30:10;;;;;;;7.20;2.57;;;;;;;14.71;100.00;101696.78;4955853;28;20483;-68
2022/10/28 00:32:36;;;;;;;7.30;2.43;;;;;;;14.73;100.00;101688.31;4958359;28;20471;-69
2022/10/28 00:35:03;;;;;;;6.53;2.50;;;;;;;14.74;100.00;101690.75;4956286;28;20482;-69
2022/10/28 00:37:30;;;;;;;7.40;2.60;;;;;;;14.73;100.00;101691.03;4956277;28;20503;-68
2022/10/28 00:39:57;;;;;;;5.40;2.70;;;;;;;14.77;100.00;101683.88;4956228;28;20958;-69
2022/10/28 00:42:23;;;;;;;6.07;2.30;;;;;;;14.82;100.00;101686.50;4957387;28;20471;-68
2022/10/28 00:44:54;;;;;;;8.70;2.67;;;;;;;14.82;100.00;101689.22;4955484;28;20486;-69
2022/10/28 00:47:31;;;;;;;6.00;2.30;;;;;;;14.79;100.00;101689.84;4956512;28;20438;-68
2022/10/28 00:50:28;;;;;;;6.10;2.93;;;;;;;14.81;100.00;101685.69;4955707;28;20457;-69
2022/10/28 00:53:00;;;;;;;5.87;2.60;;;;;;;14.83;100.00;101688.94;4958020;28;20463;-69
2022/10/28 00:55:27;;;;;;;8.60;3.70;;;;;;;14.83;100.00;101675.28;4956310;28;20466;-69
2022/10/28 00:57:56;;;;;;;5.43;2.37;;;;;;;14.79;100.00;101677.00;4955642;28;20470;-69
2022/10/28 01:00:24;;;;;;;7.70;3.30;;;;;;;14.74;100.00;101662.63;4956340;28;20522;-69
2022/10/28 01:02:50;;;;;;;6.10;2.60;;;;;;;14.69;100.00;101670.91;4957233;28;20494;-69
2022/10/28 01:05:21;;;;;;;6.60;3.07;;;;;;;14.73;100.00;101688.31;4956006;29;20471;-68
2022/10/28 01:07:49;;;;;;;7.83;2.60;;;;;;;14.76;100.00;101683.06;4955471;28;20458;-68
2022/10/28 01:10:18;;;;;;;9.10;3.37;;;;;;;14.78;100.00;101669.09;4955930;28;20990;-67
2022/10/28 01:12:58;;;;;;;9.23;3.27;;;;;;;14.76;100.00;101666.69;4955522;28;20459;-68
2022/10/28 01:15:33;;;;;;;7.30;3.03;;;;;;;14.74;100.00;101657.19;4955627;28;21053;-68
2022/10/28 01:18:11;;;;;;;6.30;2.80;;;;;;;14.74;100.00;101658.00;4955354;28;20455;-68
2022/10/28 01:21:11;;;;;;;4.73;2.17;;;;;;;14.71;100.00;101664.06;4955689;28;20852;-68
2022/10/28 01:23:48;;;;;;;6.20;2.53;;;;;;;14.68;100.00;101652.94;4927027;28;20989;-68
2022/10/28 01:26:45;;;;;;;18.03;3.30;;;;;;;14.67;100.00;101652.16;4955236;28;20454;-68
2022/10/28 01:29:37;;;;;;;4.87;2.27;;;;;;;14.64;100.00;101658.19;4955491;29;20918;-68
2022/10/28 01:32:13;;;;;;;6.03;2.87;;;;;;;14.59;100.00;101655.56;4955110;28;20514;-68
2022/10/28 01:34:52;;;;;;;5.87;2.87;;;;;;;14.57;100.00;101644.16;4976569;23;20580;-70
2022/10/28 01:37:26;;;;;;;8.23;3.47;;;;;;;14.55;100.00;101643.66;4974731;28;20540;-71
2022/10/28 01:39:59;;;;;;;6.23;2.63;;;;;;;14.57;100.00;101642.25;4974221;28;20466;-70
2022/10/28 01:42:32;;;;;;;10.73;2.80;;;;;;;14.59;100.00;101645.47;4973923;28;20430;-71
2022/10/28 01:45:03;;;;;;;6.43;2.90;;;;;;;14.55;100.00;101649.91;4972239;28;20496;-71
2022/10/28 01:47:36;;;;;;;7.60;3.40;;;;;;;14.56;100.00;101645.25;4974251;28;20430;-71
2022/10/28 01:50:08;;;;;;;6.13;2.57;;;;;;;14.56;100.00;101634.34;4965103;28;20450;-71
2022/10/28 01:52:37;;;;;;;10.10;3.67;;;;;;;14.55;100.00;101638.19;4972470;28;20512;-70
2022/10/28 01:55:10;;;;;;;6.10;2.80;;;;;;;14.54;100.00;101633.84;4974327;28;20470;-70
2022/10/28 01:57:39;;;;;;;8.53;3.40;;;;;;;14.51;100.00;101629.00;4972294;28;20473;-70
2022/10/28 02:00:07;;;;;;;6.37;3.40;;;;;;;14.51;100.00;101626.28;4974732;28;20445;-70
2022/10/28 02:02:37;;;;;;;6.30;3.17;;;;;;;14.48;100.00;101621.41;4972869;28;20469;-67
2022/10/28 02:05:06;;;;;;;7.27;3.07;;;;;;;14.42;100.00;101622.59;4974273;28;20466;-67
2022/10/28 02:07:32;;;;;;;7.40;3.13;;;;;;;14.37;100.00;101632.47;4973734;28;20469;-68
2022/10/28 02:10:10;;;;;;;6.23;2.57;;;;;;;14.32;100.00;101635.31;4974378;28;20471;-68
2022/10/28 02:12:37;;;;;;;9.93;4.00;;;;;;;14.26;100.00;101627.53;4972669;28;20461;-69
2022/10/28 02:15:33;;;;;;;7.90;3.67;;;;;;;14.21;100.00;101623.00;4974382;28;20959;-69
2022/10/28 02:18:16;;;;;;;4.90;2.30;;;;;;;14.19;100.00;101635.28;4973259;28;20897;-69
2022/10/28 02:20:51;;;;;;;16.80;3.40;;;;;;;14.17;100.00;101627.41;4973143;28;20460;-69
2022/10/28 02:23:24;;;;;;;7.70;3.30;;;;;;;14.12;100.00;101632.94;4972370;28;20867;-68
2022/10/28 02:25:56;;;;;;;8.83;3.50;;;;;;;14.09;100.00;101636.28;4973473;28;20486;-69
2022/10/28 02:28:29;;;;;;;6.80;2.63;;;;;;;14.05;100.00;101637.97;4974262;28;20437;-71
2022/10/28 02:31:02;;;;;;;6.90;3.07;;;;;;;14.01;100.00;101639.69;4973483;28;20457;-72
2022/10/28 02:33:35;;;;;;;8.30;3.87;;;;;;;13.97;100.00;101627.75;4967859;28;20462;-71
2022/10/28 02:36:05;;;;;;;7.00;3.07;;;;;;;13.93;100.00;101618.56;4954693;29;20484;-69
2022/10/28 02:38:34;;;;;;;14.27;3.53;;;;;;;13.86;100.00;101617.03;4959724;28;20469;-69
2022/10/28 02:41:06;;;;;;;7.90;3.60;;;;;;;13.77;100.00;101618.81;4974181;28;20791;-69
2022/10/28 02:43:36;;;;;;;8.57;3.47;;;;;;;13.79;100.00;101616.59;4972545;28;20873;-69
2022/10/28 02:46:05;;;;;;;6.53;3.03;;;;;;;13.76;100.00;101613.66;4974002;28;20525;-69
2022/10/28 02:48:38;;;;;;;11.03;2.60;;;;;;;13.69;100.00;101627.66;4974151;28;20465;-69
2022/10/28 02:51:08;;;;;;;9.43;3.60;;;;;;;13.67;100.00;101621.69;4977857;28;20489;-71
2022/10/28 02:53:45;;;;;;;8.87;4.27;;;;;;;13.70;100.00;101614.84;4976384;28;20457;-72
2022/10/28 02:56:14;;;;;;;7.00;2.83;;;;;;;13.66;100.00;101616.53;4976116;28;20489;-70
2022/10/28 02:58:41;;;;;;;7.47;2.93;;;;;;;13.68;100.00;101628.78;4976795;28;20477;-69
2022/10/28 03:01:08;;;;;;;33.77;3.47;;;;;;;13.64;100.00;101627.75;4977500;28;20441;-68
2022/10/28 03:03:35;;;;;;;8.60;3.67;;;;;;;13.60;100.00;101627.53;4976811;28;20461;-68
2022/10/28 03:06:02;;;;;;;7.20;3.20;;;;;;;13.55;100.00;101624.06;4977639;28;20466;-68
2022/10/28 03:08:28;;;;;;;6.70;2.80;;;;;;;13.49;100.00;101625.22;4976022;28;20512;-72
2022/10/28 03:10:55;;;;;;;9.13;3.03;;;;;;;13.47;100.00;101622.81;4977514;28;20445;-71
2022/10/28 03:13:21;;;;;;;6.47;2.77;;;;;;;13.49;100.00;101617.88;4977021;28;20476;-71
2022/10/28 03:15:47;;;;;;;5.47;2.57;;;;;;;13.46;100.00;101617.66;4977591;28;20524;-71
2022/10/28 03:18:14;;;;;;;10.27;4.23;;;;;;;13.44;100.00;101615.22;4976620;28;20486;-68
2022/10/28 03:20:41;;;;;;;7.30;3.77;;;;;;;13.41;100.00;101610.38;4975985;28;20470;-67
2022/10/28 03:23:08;;;;;;;9.30;3.23;;;;;;;13.36;100.00;101619.41;4976710;28;20516;-68
2022/10/28 03:25:34;;;;;;;6.50;3.03;;;;;;;13.35;100.00;101617.81;4977012;28;20470;-69
2022/10/28 03:28:01;;;;;;;7.80;3.20;;;;;;;13.27;100.00;101610.28;4976733;28;20462;-70
2022/10/28 03:30:27;;;;;;;7.20;3.60;;;;;;;13.22;100.00;101618.53;4975603;28;20589;-70
2022/10/28 03:32:53;;;;;;;6.53;3.33;;;;;;;13.17;100.00;101624.03;4977441;28;20452;-71
2022/10/28 03:35:20;;;;;;;14.03;3.80;;;;;;;13.05;100.00;101635.31;4975393;28;20493;-70
2022/10/28 03:37:48;;;;;;;6.80;2.83;;;;;;;13.00;100.00;101627.22;4977451;28;20840;-68
2022/10/28 03:40:14;;;;;;;8.30;3.50;;;;;;;12.95;100.00;101634.66;4975629;28;20458;-68
2022/10/28 03:42:41;;;;;;;7.03;2.73;;;;;;;12.84;100.00;101642.94;4977184;28;20453;-68
2022/10/28 03:45:08;;;;;;;7.97;3.70;;;;;;;12.85;100.00;101635.59;4976391;28;20517;-68
2022/10/28 03:47:35;;;;;;;12.17;3.40;;;;;;;12.79;100.00;101631.28;4977125;28;20442;-68
2022/10/28 03:50:02;;;;;;;7.53;3.53;;;;;;;12.68;100.00;101625.16;4973668;28;20957;-68
2022/10/28 03:52:28;;;;;;;6.30;3.10;;;;;;;12.66;100.00;101623.84;4976965;28;20565;-68
2022/10/28 03:54:56;;;;;;;14.40;3.97;;;;;;;12.60;100.00;101606.78;4976296;28;20710;-68
2022/10/28 03:57:22;;;;;;;9.93;3.73;;;;;;;12.57;100.00;101610.06;4976779;28;20489;-69
2022/10/28 03:59:49;;;;;;;7.93;3.53;;;;;;;12.57;100.00;101602.75;4974930;28;20791;-69
2022/10/28 04:02:15;;;;;;;6.33;2.83;;;;;;;12.54;100.00;101610.66;4974946;28;20466;-69
2022/10/28 04:04:41;;;;;;;6.50;2.93;;;;;;;12.52;100.00;101621.81;4975881;28;20536;-69
2022/10/28 04:07:08;;;;;;;9.93;3.67;;;;;;;12.48;100.00;101620.75;4976653;28;20454;-68
2022/10/28 04:09:34;;;;;;;8.30;3.50;;;;;;;12.53;100.00;101619.91;4975960;28;20477;-67
2022/10/28 04:12:02;;;;;;;7.90;3.73;;;;;;;12.47;100.00;101621.06;4969409;28;20546;-67
2022/10/28 04:14:28;;;;;;;9.83;3.87;;;;;;;12.45;100.00;101615.91;4957352;29;20467;-67
2022/10/28 04:16:55;;;;;;;9.67;3.80;;;;;;;12.46;100.00;101611.28;4966476;28;20498;-67
2022/10/28 04:19:21;;;;;;;10.97;4.23;;;;;;;12.45;100.00;101602.34;4976515;28;20860;-69
2022/10/28 04:21:48;;;;;;;8.20;3.73;;;;;;;12.47;100.00;101604.75;4975342;28;20540;-70
2022/10/28 04:24:14;;;;;;;7.40;3.70;;;;;;;12.44;100.00;101600.72;4976020;28;20961;-70
2022/10/28 04:26:41;;;;;;;12.20;3.97;;;;;;;12.45;100.00;101612.41;4975366;28;20465;-70
2022/10/28 04:29:08;;;;;;;8.67;3.80;;;;;;;12.42;100.00;101602.09;4976425;28;20453;-68
2022/10/28 04:31:35;;;;;;;9.50;4.23;;;;;;;12.42;100.00;101605.63;4975128;28;20964;-68
2022/10/28 04:34:01;;;;;;;10.13;4.07;;;;;;;12.36;100.00;101612.22;4976094;28;20457;-68
2022/10/28 04:36:28;;;;;;;6.47;3.13;;;;;;;12.36;100.00;101604.06;4975009;28;20501;-68
2022/10/28 04:38:54;;;;;;;9.47;3.80;;;;;;;12.37;100.00;101602.97;4976146;28;20452;-68
2022/10/28 04:41:20;;;;;;;7.33;3.57;;;;;;;12.29;100.00;101606.28;4975309;28;20528;-68
2022/10/28 04:43:47;;;;;;;9.60;3.80;;;;;;;12.25;100.00;101595.19;4975897;28;20976;-67
2022/10/28 04:46:15;;;;;;;6.20;2.60;;;;;;;12.26;100.00;101591.41;4975744;28;20477;-67
2022/10/28 04:48:41;;;;;;;7.83;3.80;;;;;;;12.23;100.00;101600.13;4976020;28;20464;-67
2022/10/28 04:51:08;;;;;;;6.53;3.10;;;;;;;12.12;100.00;101599.38;4973539;28;20470;-67
2022/10/28 04:53:34;;;;;;;6.67;3.40;;;;;;;12.13;100.00;101608.38;4975838;28;20449;-67
2022/10/28 04:56:00;;;;;;;7.50;3.80;;;;;;;12.08;100.00;101605.69;4975049;28;20493;-67
2022/10/28 04:58:27;;;;;;;6.80;2.93;;;;;;;12.05;100.00;101595.41;4975764;28;20494;-67
2022/10/28 05:00:53;;;;;;;8.37;4.17;;;;;;;12.00;100.00;101606.31;4973906;28;20466;-66
2022/10/28 05:03:21;;;;;;;6.50;3.00;;;;;;;12.01;100.00;101602.50;4965135;28;20502;-66
2022/10/28 05:05:48;;;;;;;9.23;3.80;;;;;;;11.99;100.00;101596.53;4962435;28;20525;-67
2022/10/28 05:08:14;;;;;;;6.83;3.23;;;;;;;11.88;100.00;101592.31;4975795;28;20858;-74
2022/10/28 05:10:41;;;;;;;9.53;3.00;;;;;;;11.88;100.00;101587.69;4972763;28;20476;-71
2022/10/28 05:13:07;;;;;;;10.33;4.13;;;;;;;11.86;100.00;101593.41;4975248;28;20441;-71
2022/10/28 05:15:34;;;;;;;7.30;3.40;;;;;;;11.86;100.00;101576.28;4974523;28;20482;-69
2022/10/28 05:18:00;;;;;;;9.37;3.83;;;;;;;11.89;100.00;101575.72;4975450;28;20489;-70
2022/10/28 05:20:28;;;;;;;8.03;4.10;;;;;;;11.86;100.00;101577.13;4966004;28;20493;-71
2022/10/28 05:22:55;;;;;;;8.83;3.67;;;;;;;11.81;100.00;101577.09;4956160;29;20446;-71
2022/10/28 05:25:22;;;;;;;8.67;4.83;;;;;;;11.83;100.00;101580.38;4964355;28;20485;-68
2022/10/28 05:27:49;;;;;;;8.03;3.37;;;;;;;11.88;100.00;101578.72;4975212;28;20508;-69
2022/10/28 05:30:16;;;;;;;9.13;3.53;;;;;;;11.92;100.00;101575.16;4973637;28;20462;-71
2022/10/28 05:32:42;;;;;;;10.30;4.60;;;;;;;11.94;100.00;101574.84;4975244;28;20820;-71
2022/10/28 05:35:10;;;;;;;8.60;3.50;;;;;;;11.91;100.00;101584.41;4973393;28;20548;-71
2022/10/28 05:37:38;;;;;;;13.70;4.70;;;;;;;11.95;100.00;101590.03;4975039;28;20485;-71
2022/10/28 05:40:05;;;;;;;7.00;3.63;;;;;;;11.96;100.00;101586.25;4973427;28;20473;-69
2022/10/28 05:42:31;;;;;;;8.13;3.93;;;;;;;11.98;100.00;101568.56;4974969;28;20453;-68
2022/10/28 05:44:57;;;;;;;7.37;3.20;;;;;;;11.99;100.00;101574.81;4969549;28;20553;-68
2022/10/28 05:47:24;;;;;;;8.20;3.63;;;;;;;12.00;100.00;101563.69;4955731;29;20450;-69
2022/10/28 05:49:50;;;;;;;8.60;2.93;;;;;;;12.02;100.00;101569.63;4967322;28;20458;-68
2022/10/28 05:52:17;;;;;;;7.40;3.77;;;;;;;12.09;100.00;101575.53;4974574;28;20989;-69
2022/10/28 05:54:44;;;;;;;9.67;3.87;;;;;;;12.11;100.00;101572.53;4971345;28;20489;-70
2022/10/28 05:57:11;;;;;;;7.83;3.40;;;;;;;12.15;100.00;101572.75;4955468;29;20487;-70
2022/10/28 05:59:37;;;;;;;8.23;3.87;;;;;;;12.15;100.00;101570.06;4971015;28;20484;-71
2022/10/28 06:02:04;;;;;;;6.70;3.37;;;;;;;12.18;100.00;101561.34;4974826;28;20441;-69
2022/10/28 06:04:31;;;;;;;8.77;3.97;;;;;;;12.16;100.00;101553.47;4973837;28;20488;-70
2022/10/28 06:06:58;;;;;;;8.83;3.77;;;;;;;12.20;100.00;101551.78;4972927;28;20489;-71
2022/10/28 06:09:26;;;;;;;7.97;3.50;;;;;;;12.25;100.00;101556.34;4974393;28;20850;-74
2022/10/28 06:11:54;;;;;;;7.53;3.90;;;;;;;12.26;100.00;101542.50;4973586;28;20961;-73
2022/10/28 06:14:21;;;;;;;6.93;3.17;;;;;;;12.27;100.00;101537.88;4974161;28;20460;-73
2022/10/28 06:16:47;;;;;;;8.47;3.80;;;;;;;12.29;100.00;101527.50;4964371;28;20502;-70
2022/10/28 06:19:13;;;;;;;8.67;3.47;;;;;;;12.31;100.00;101533.47;4954926;29;21017;-69
2022/10/28 06:21:40;;;;;;;8.60;3.53;;;;;;;12.29;100.00;101539.19;4966894;28;20520;-71
2022/10/28 06:24:07;;;;;;;7.00;3.70;;;;;;;12.31;100.00;101538.91;4973883;28;20450;-73
2022/10/28 06:26:34;;;;;;;8.90;3.80;;;;;;;12.32;100.00;101535.91;4971717;28;20501;-71
2022/10/28 06:29:02;;;;;;;7.23;3.80;;;;;;;12.31;100.00;101531.56;4974675;28;20464;-71
2022/10/28 06:31:28;;;;;;;6.70;3.07;;;;;;;12.34;100.00;101536.41;4973608;28;20462;-71
2022/10/28 06:33:54;;;;;;;8.60;3.17;;;;;;;12.38;100.00;101534.72;4974408;28;20445;-72
2022/10/28 06:36:21;;;;;;;9.37;4.93;;;;;;;12.45;100.00;101528.16;4972854;28;20509;-73
2022/10/28 06:38:47;;;;;;;8.90;3.80;;;;;;;12.53;100.00;101524.81;4971082;28;20497;-73
2022/10/28 06:41:14;;;;;;;10.80;3.87;;;;;;;12.59;100.00;101531.78;4970294;28;20458;-72
2022/10/28 06:43:40;;;;;;;11.70;3.73;;;;;;;12.66;100.00;101551.28;4972434;28;20466;-73
2022/10/28 06:46:08;;;;;;;7.50;4.17;;;;;;;12.70;100.00;101556.91;4973871;28;20477;-71
2022/10/28 06:48:34;;;;;;;7.73;4.23;;;;;;;12.73;100.00;101551.72;4973167;28;20458;-69
2022/10/28 06:51:01;;;;;;;8.47;4.10;;;;;;;12.79;100.00;101549.72;4974363;28;20441;-70
2022/10/28 06:53:27;;;;;;;7.17;3.50;;;;;;;12.87;100.00;101555.31;4972567;28;20469;-69
2022/10/28 06:55:54;;;;;;;8.67;4.20;;;;;;;12.95;100.00;101553.88;4971913;28;21063;-69
2022/10/28 06:58:21;;;;;;;10.27;3.80;;;;;;;13.02;100.00;101559.75;4973058;28;20505;-69
2022/10/28 07:00:47;;;;;;;15.13;3.97;;;;;;;13.06;100.00;101560.78;4964397;28;20489;-69
2022/10/28 07:03:15;;;;;;;8.10;3.40;;;;;;;13.10;100.00;101561.00;4966935;28;20458;-69
2022/10/28 07:05:42;;;;;;;8.27;3.93;;;;;;;13.21;100.00;101567.13;4954687;29;20467;-69
2022/10/28 07:08:08;;;;;;;14.30;4.30;;;;;;;13.29;100.00;101566.47;4959778;28;20462;-67
2022/10/28 07:10:35;;;;;;;7.40;3.63;;;;;;;13.40;100.00;101556.25;4954471;29;20969;-67
2022/10/28 07:13:01;;;;;;;12.00;4.17;;;;;;;13.54;100.00;101557.09;4965325;28;20465;-67
2022/10/28 07:15:28;;;;;;;9.50;4.00;;;;;;;13.68;100.00;101559.88;4973974;28;20465;-66
2022/10/28 07:17:54;;;;;;;8.13;3.50;;;;;;;13.77;100.00;101552.66;4971250;28;20494;-69
2022/10/28 07:20:24;;;;;;;8.03;3.80;;;;;;;13.95;100.00;101559.97;4974286;28;20457;-70
2022/10/28 07:22:55;;;;;;;9.00;3.73;;;;;;;14.11;100.00;101568.66;4973465;28;20987;-70
2022/10/28 07:25:22;;;;;;;7.03;3.13;;;;;;;14.19;100.00;101570.69;4973876;28;20478;-70
2022/10/28 07:27:48;;;;;;;9.50;3.90;;;;;;;14.24;100.00;101578.75;4972792;28;20465;-70
2022/10/28 07:30:15;;;;;;;13.20;3.80;;;;;;;14.33;100.00;101578.88;4957733;28;20455;-70
2022/10/28 07:32:41;;;;;;;6.60;3.50;;;;;;;14.37;100.00;101569.78;4954690;29;20458;-69
2022/10/28 07:35:08;;;;;;;7.10;3.53;;;;;;;14.49;100.00;101565.78;4971432;28;20497;-70
2022/10/28 07:37:37;;;;;;;7.67;2.97;;;;;;;14.59;100.00;101563.66;4977109;28;20525;-70
2022/10/28 07:40:05;;;;;;;10.20;3.63;;;;;;;14.67;100.00;101580.44;4975100;28;20461;-70
2022/10/28 07:42:32;;;;;;;7.13;3.00;;;;;;;14.78;100.00;101562.72;4973438;28;20465;-70
2022/10/28 07:44:59;;;;;;;7.03;3.00;;;;;;;14.88;100.00;101570.72;4975968;28;20465;-70
2022/10/28 07:47:25;;;;;;;7.23;2.97;;;;;;;15.00;100.00;101573.69;4975929;28;21047;-70
2022/10/28 07:49:53;;;;;;;8.07;3.40;;;;;;;15.14;100.00;101560.06;4975685;28;20453;-71
2022/10/28 07:52:19;;;;;;;6.50;3.30;;;;;;;15.26;100.00;101570.41;4957808;28;20458;-69
2022/10/28 07:54:47;;;;;;;10.87;3.67;;;;;;;15.42;100.00;101576.34;4975853;28;20489;-70
2022/10/28 07:57:13;;;;;;;7.60;3.30;;;;;;;15.58;100.00;101583.03;4976767;28;20453;-70
2022/10/28 07:59:40;;;;;;;9.03;4.00;;;;;;;15.64;100.00;101587.28;4965130;28;20875;-70
2022/10/28 08:02:06;;;;;;;9.33;3.77;;;;;;;15.70;100.00;101582.50;4974168;28;20473;-69
2022/10/28 08:04:33;;;;;;;7.10;3.37;;;;;;;15.73;100.00;101587.34;4976734;28;20477;-69
2022/10/28 08:06:59;;;;;;;7.00;3.10;;;;;;;15.86;100.00;101592.75;4973472;28;20481;-70
2022/10/28 08:09:26;;;;;;;8.27;3.07;;;;;;;16.03;100.00;101583.84;4976688;28;20812;-70
2022/10/28 08:11:56;;;;;;;12.07;2.80;;;;;;;16.24;100.00;101589.56;4973872;28;20470;-70
2022/10/28 08:14:23;;;;;;;4.90;2.17;;;;;;;16.37;100.00;101576.91;4976610;28;20440;-70
2022/10/28 08:16:49;;;;;;;6.50;2.90;;;;;;;16.44;100.00;101562.81;4972483;28;20465;-70
2022/10/28 08:19:16;;;;;;;13.80;3.20;;;;;;;16.49;100.00;101563.47;4963540;28;20485;-70
2022/10/28 08:21:42;;;;;;;7.83;3.20;;;;;;;16.57;100.00;101570.09;4976514;28;20442;-70
2022/10/28 08:24:09;;;;;;;8.13;3.03;;;;;;;16.67;100.00;101608.09;4975082;28;20457;-70
2022/10/28 08:26:35;;;;;;;7.87;3.40;;;;;;;16.70;100.00;101598.44;4969359;28;20970;-69
2022/10/28 08:29:03;;;;;;;11.43;3.80;;;;;;;16.74;100.00;101605.75;4958661;28;20498;-69
2022/10/28 08:31:31;;;;;;;5.57;2.23;;;;;;;16.83;100.00;101603.81;4957154;28;20455;-70
2022/10/28 08:33:58;;;;;;;5.23;2.27;;;;;;;16.92;100.00;101606.59;4957427;28;20458;-70
2022/10/28 08:36:25;;;;;;;8.93;3.10;;;;;;;16.97;100.00;101598.22;4976050;28;20532;-70
2022/10/28 08:38:51;;;;;;;6.10;2.40;;;;;;;17.01;99.28;101604.66;4972911;28;20489;-70
2022/10/28 08:41:27;;;;;;;5.63;2.17;;;;;;;17.03;98.26;101593.38;4976063;28;20941;-69
2022/10/28 08:44:09;;;;;;;5.90;2.90;;;;;;;17.03;98.58;101599.66;4975167;28;20803;-70
2022/10/28 08:46:52;;;;;;;10.40;3.20;;;;;;;17.09;98.94;101592.13;4975273;28;20430;-70
2022/10/28 08:49:22;;;;;;;8.70;2.70;;;;;;;17.11;99.30;101598.88;4974327;28;20454;-70
2022/10/28 08:51:53;;;;;;;8.60;2.40;;;;;;;17.21;98.49;101596.94;4974523;28;20462;-71
2022/10/28 08:54:24;;;;;;;7.60;1.93;;;;;;;17.20;97.61;101601.63;4969593;28;20465;-70
2022/10/28 08:56:54;;;;;;;5.70;2.30;;;;;;;17.18;97.79;101617.59;4975278;28;20434;-71
2022/10/28 08:59:32;;;;;;;5.27;2.70;;;;;;;17.19;97.52;101591.81;4959982;28;20867;-69
2022/10/28 09:02:03;;;;;;;13.53;2.70;;;;;;;17.27;97.27;101593.75;4969218;28;20463;-70
2022/10/28 09:04:38;;;;;;;7.37;2.63;;;;;;;17.35;97.59;101579.25;4976910;28;20472;-70
2022/10/28 09:07:05;;;;;;;6.33;2.67;;;;;;;17.44;97.89;101571.00;4961680;28;20534;-70
2022/10/28 09:09:32;;;;;;;5.60;1.97;;;;;;;17.60;97.94;101571.34;4956459;29;20443;-70
2022/10/28 09:12:23;;;;;;;4.77;2.13;;;;;;;17.78;97.38;101559.25;4969480;28;20492;-70
2022/10/28 09:15:17;;;;;;;6.10;2.30;;;;;;;17.92;95.27;101558.25;4974555;28;20486;-69
2022/10/28 09:17:52;;;;;;;7.80;2.40;;;;;;;18.03;94.93;101562.25;4973802;28;20465;-70
2022/10/28 09:20:24;;;;;;;5.57;2.60;;;;;;;18.14;93.97;101561.53;4975489;28;20489;-69
2022/10/28 09:22:56;;;;;;;6.57;2.40;;;;;;;18.24;93.18;101565.88;4972842;28;20461;-69
2022/10/28 09:25:27;;;;;;;5.90;2.30;;;;;;;18.29;92.21;101562.97;4974301;28;20476;-70
2022/10/28 09:28:07;;;;;;;6.00;2.90;;;;;;;18.26;92.35;101558.13;4964490;28;20438;-70
2022/10/28 09:30:48;;;;;;;7.50;1.90;;;;;;;18.20;92.60;101556.72;4973043;28;20512;-70
2022/10/28 09:33:28;;;;;;;6.37;1.90;;;;;;;18.17;91.54;101557.34;4975289;28;20432;-70
2022/10/28 09:35:57;;;;;;;6.00;2.50;;;;;;;18.19;91.84;101559.75;4999308;23;20508;-70
2022/10/28 09:38:27;;;;;;;6.90;2.27;;;;;;;18.39;90.83;101562.59;4974423;28;20493;-70
2022/10/28 09:40:59;;;;;;;8.50;3.03;;;;;;;18.62;89.91;101557.63;4976056;28;20458;-70
2022/10/28 09:43:28;;;;;;;4.77;2.13;;;;;;;18.77;88.27;101569.19;4974996;28;20457;-70
2022/10/28 09:46:01;;;;;;;5.20;2.13;;;;;;;18.85;87.34;101555.41;4973579;28;20478;-70
2022/10/28 09:48:31;;;;;;;5.70;2.60;;;;;;;18.88;87.59;101549.25;4974135;28;20462;-70
2022/10/28 09:50:59;;;;;;;5.33;2.23;;;;;;;18.88;86.55;101538.28;4973229;28;20473;-70
2022/10/28 09:53:40;;;;;;;9.23;2.20;;;;;;;18.97;86.93;101534.66;4974743;28;20524;-70
2022/10/28 09:56:07;;;;;;;6.40;2.57;;;;;;;19.00;86.18;101536.75;4973733;28;20489;-70
2022/10/28 09:58:35;;;;;;;5.77;1.90;;;;;;;18.97;85.43;101532.72;4973071;28;20490;-71
2022/10/28 10:01:04;;;;;;;4.40;1.60;;;;;;;18.94;85.58;101535.31;4958014;28;20855;-67
2022/10/28 10:03:31;;;;;;;5.13;2.33;;;;;;;18.94;85.92;101532.56;4974159;28;20437;-69
2022/10/28 10:06:02;;;;;;;5.73;2.10;;;;;;;18.90;86.60;101532.44;4974516;28;20474;-69
2022/10/28 10:08:30;;;;;;;4.37;1.90;;;;;;;18.95;86.62;101534.19;4972732;28;20465;-70
2022/10/28 10:10:59;;;;;;;5.33;2.10;;;;;;;19.02;86.27;101534.47;4974605;28;20474;-70
2022/10/28 10:13:29;;;;;;;6.73;2.63;;;;;;;19.16;85.66;101533.03;4971211;28;20493;-70
2022/10/28 10:15:59;;;;;;;7.40;2.60;;;;;;;19.33;83.70;101534.03;4972719;28;20505;-69
2022/10/28 10:18:31;;;;;;;6.37;2.37;;;;;;;19.47;83.89;101531.00;4974437;28;20430;-69
2022/10/28 10:20:58;;;;;;;4.13;1.57;;;;;;;19.60;82.88;101527.16;4974105;28;20899;-69
2022/10/28 10:23:30;;;;;;;6.90;1.90;;;;;;;19.69;82.88;101522.38;4974485;28;20449;-69
2022/10/28 10:25:59;;;;;;;8.40;2.00;;;;;;;19.83;81.97;101520.16;4972485;28;20540;-70
2022/10/28 10:28:26;;;;;;;5.63;2.00;;;;;;;19.96;82.40;101520.16;4974378;28;20446;-70
2022/10/28 10:30:56;;;;;;;6.43;1.83;;;;;;;20.14;80.80;101522.38;4972176;28;20477;-69
2022/10/28 10:33:25;;;;;;;5.43;1.80;;;;;;;20.18;81.80;101525.22;4974313;28;20457;-69
2022/10/28 10:36:00;;;;;;;4.80;1.83;;;;;;;20.21;82.58;101508.03;4972260;28;20498;-69
2022/10/28 10:38:29;;;;;;;14.40;2.43;;;;;;;20.33;79.98;101510.78;4974140;28;20469;-71
2022/10/28 10:40:56;;;;;;;5.60;2.30;;;;;;;20.56;80.42;101516.63;4969860;28;20458;-70
2022/10/28 10:43:29;;;;;;;5.20;1.60;;;;;;;20.76;79.06;101512.16;4972975;28;20461;-70
2022/10/28 10:46:02;;;;;;;4.47;1.37;;;;;;;20.91;78.28;101503.16;4974522;28;20470;-70
2022/10/28 10:48:31;;;;;;;5.73;2.00;;;;;;;21.07;76.38;101507.91;4970541;28;20501;-70
2022/10/28 10:51:04;;;;;;;5.30;1.90;;;;;;;21.15;76.19;101498.69;4966951;28;20508;-71
2022/10/28 10:53:32;;;;;;;5.30;1.77;;;;;;;21.24;77.32;101498.53;4962533;28;20502;-70
2022/10/28 10:56:01;;;;;;;4.43;1.83;;;;;;;21.37;77.23;101494.63;4968015;28;20486;-70
2022/10/28 10:58:30;;;;;;;6.17;1.87;;;;;;;21.61;76.24;101501.97;4968886;28;20852;-71
2022/10/28 11:01:00;;;;;;;5.37;1.70;;;;;;;21.99;75.88;101493.06;4970550;28;20469;-70
2022/10/28 11:03:31;;;;;;;6.40;2.23;;;;;;;22.73;73.54;101487.72;4973454;28;20460;-69
2022/10/28 11:06:00;;;;;;;4.43;1.77;;;;;;;23.56;69.72;101498.47;4973467;28;20489;-70
2022/10/28 11:08:37;;;;;;;6.93;1.50;;;;;;;24.42;65.89;101501.53;4974156;28;20481;-70
2022/10/28 11:11:11;;;;;;;4.17;1.57;;;;;;;25.40;63.30;101505.19;4972685;28;20461;-70
2022/10/28 11:13:39;;;;;;;5.73;1.93;;;;;;;26.11;59.68;101504.25;4977794;28;20433;-70
2022/10/28 11:16:07;;;;;;;4.10;1.17;;;;;;;26.81;57.99;101505.94;4976182;28;20551;-70
2022/10/28 11:18:42;;;;;;;4.00;1.57;;;;;;;27.00;53.31;101504.00;4976907;28;20460;-70
2022/10/28 11:21:25;;;;;;;5.80;1.63;;;;;;;27.30;53.27;101506.53;4966339;28;20536;-70
2022/10/28 11:24:05;;;;;;;4.43;1.60;;;;;;;27.61;52.02;101502.22;4958271;29;20797;-70
2022/10/28 11:26:41;;;;;;;3.93;1.60;;;;;;;27.73;52.71;101490.75;4977173;28;20477;-70
2022/10/28 11:29:10;;;;;;;4.20;1.50;;;;;;;28.12;50.35;101487.16;4977077;28;20470;-71